19:25
Airports
History
Links
Donate
Help keep this website running!
PayPal
Bitcoin
This page is community maintained. The information is intended for PC simulator navigation or reference.
Always use approved charts for navigation.
SIYS
Helibras
Helibras (SIYS)
Itajubá, Minas Gerais, Brazil (37504)
4
Lat/Lng:22° 25' 51" S / 45° 28' 45" W
-22.430833 / -45.479167
Elevation:2759'ft / 841mMSL
ID / ICAO:SIYS
Runways:1
Longest:02-20
Grass 612m / 2,006ft
Nearby Weather19:00 GMT 2017-11-18
Nearby weather at SBGW, GUARATINGUETA located 30.5 nautical miles from SIYS
Altimeter: 29.71
Visibility: 6.2 statute miles
Wind: 4 knots (from VRB°)
Temp: 31°c / 88°f
Humidity: 38.0%

METAR: SBGW 181900Z VRB04KT 9999 VCSH SCT030 FEW035TCU SCT080 31/15 Q1006

(Powered by phpweather)
Runway 02 / 20
Dimensions:611.5 x 24.1m 2006' x 79'ft
Surface:Grass
Runway 02 [A]Runway 20 [B]
Heading:358°TH 178°TH
Lat:
Lng:
22° 26' 0.83"S
45° 28' 44.79"W
22° 25' 41.17"S
45° 28' 45.21"W
User Notes and Comments
22° 25' 51" S / 45° 28' 45" W
Distance To
Airport ID:
Nearby Airports
(C) Santa Rita Do Sapucai 14.9 NM
SNSK NW 316°
4 Fazenda Paineira 26.6 NM
SNFQ NW 317°
(C) Pouso Alegre 29.8 NM
SNZA WNW 289°
(C) GUARATINGUETA 30.5 NM
SBGW ( WX ) SE 144°
(U) FAZENDA SANTA HELENA 31.8 NM
SDZH S 181°
4 Pindamonhangaba 35.6 NM
SDPD S 175°
(C) Sao Lourenco 36.4 NM
SNLO NE 49°
VFR Chart
Flight Planning at SkyVector.com